sensor_id;sensor_type;location;lat;lon;timestamp;temperature;humidity
3876;DHT22;1953;51.222;6.624;2023-04-24T00:01:33;12.70;1.00
3876;DHT22;1953;51.222;6.624;2023-04-24T00:21:30;12.60;1.00
3876;DHT22;1953;51.222;6.624;2023-04-24T00:26:14;12.60;1.00
3876;DHT22;1953;51.222;6.624;2023-04-24T00:30:56;12.30;1.00
3876;DHT22;1953;51.222;6.624;2023-04-24T00:35:39;12.10;1.00
3876;DHT22;1953;51.222;6.624;2023-04-24T00:40:23;12.00;1.00
3876;DHT22;1953;51.222;6.624;2023-04-24T00:45:06;11.90;1.00
3876;DHT22;1953;51.222;6.624;2023-04-24T00:49:49;11.90;1.00
3876;DHT22;1953;51.222;6.624;2023-04-24T00:54:32;11.80;1.00
3876;DHT22;1953;51.222;6.624;2023-04-24T00:59:16;11.70;1.00
3876;DHT22;1953;51.222;6.624;2023-04-24T01:03:59;11.70;1.00
3876;DHT22;1953;51.222;6.624;2023-04-24T01:08:42;11.60;1.00
3876;DHT22;1953;51.222;6.624;2023-04-24T01:13:24;11.60;1.00
3876;DHT22;1953;51.222;6.624;2023-04-24T01:18:08;11.60;1.00
3876;DHT22;1953;51.222;6.624;2023-04-24T01:22:53;11.40;1.00
3876;DHT22;1953;51.222;6.624;2023-04-24T01:27:37;11.20;1.00
3876;DHT22;1953;51.222;6.624;2023-04-24T01:32:20;11.20;1.00
3876;DHT22;1953;51.222;6.624;2023-04-24T01:37:02;11.00;1.00
3876;DHT22;1953;51.222;6.624;2023-04-24T01:41:47;11.00;1.00
3876;DHT22;1953;51.222;6.624;2023-04-24T01:46:30;11.00;1.00
3876;DHT22;1953;51.222;6.624;2023-04-24T01:51:15;11.00;1.00
3876;DHT22;1953;51.222;6.624;2023-04-24T01:55:58;10.90;1.00
3876;DHT22;1953;51.222;6.624;2023-04-24T02:00:42;10.90;1.00
3876;DHT22;1953;51.222;6.624;2023-04-24T02:05:24;11.00;1.00
3876;DHT22;1953;51.222;6.624;2023-04-24T02:10:07;11.00;1.00
3876;DHT22;1953;51.222;6.624;2023-04-24T02:14:50;11.00;1.00
3876;DHT22;1953;51.222;6.624;2023-04-24T02:19:34;11.00;1.00
3876;DHT22;1953;51.222;6.624;2023-04-24T02:24:16;11.00;1.00
3876;DHT22;1953;51.222;6.624;2023-04-24T02:28:59;11.00;1.00
3876;DHT22;1953;51.222;6.624;2023-04-24T02:33:41;11.10;1.00
3876;DHT22;1953;51.222;6.624;2023-04-24T02:38:25;11.10;1.00
3876;DHT22;1953;51.222;6.624;2023-04-24T02:43:08;11.00;1.00
3876;DHT22;1953;51.222;6.624;2023-04-24T02:47:50;11.00;1.00
3876;DHT22;1953;51.222;6.624;2023-04-24T02:52:33;11.00;1.00
3876;DHT22;1953;51.222;6.624;2023-04-24T02:57:17;11.10;1.00
3876;DHT22;1953;51.222;6.624;2023-04-24T03:01:59;11.10;1.00
3876;DHT22;1953;51.222;6.624;2023-04-24T03:06:42;11.20;1.00
3876;DHT22;1953;51.222;6.624;2023-04-24T03:11:24;11.20;1.00
3876;DHT22;1953;51.222;6.624;2023-04-24T03:16:08;11.20;1.00
3876;DHT22;1953;51.222;6.624;2023-04-24T03:20:51;11.20;1.00
3876;DHT22;1953;51.222;6.624;2023-04-24T03:25:33;11.20;1.00
3876;DHT22;1953;51.222;6.624;2023-04-24T03:30:16;11.20;1.00
3876;DHT22;1953;51.222;6.624;2023-04-24T03:35:00;11.20;1.00
3876;DHT22;1953;51.222;6.624;2023-04-24T03:39:42;11.20;1.00
3876;DHT22;1953;51.222;6.624;2023-04-24T03:44:25;11.10;1.00
3876;DHT22;1953;51.222;6.624;2023-04-24T03:49:08;11.20;1.00
3876;DHT22;1953;51.222;6.624;2023-04-24T03:53:51;11.20;1.00
3876;DHT22;1953;51.222;6.624;2023-04-24T03:58:34;11.20;1.00
3876;DHT22;1953;51.222;6.624;2023-04-24T04:03:16;11.20;1.00
3876;DHT22;1953;51.222;6.624;2023-04-24T04:07:59;11.20;1.00
3876;DHT22;1953;51.222;6.624;2023-04-24T04:12:43;11.20;1.00
3876;DHT22;1953;51.222;6.624;2023-04-24T04:17:25;11.20;1.00
3876;DHT22;1953;51.222;6.624;2023-04-24T04:22:08;11.20;1.00
3876;DHT22;1953;51.222;6.624;2023-04-24T04:26:50;11.10;1.00
3876;DHT22;1953;51.222;6.624;2023-04-24T04:31:34;11.00;1.00
3876;DHT22;1953;51.222;6.624;2023-04-24T04:36:17;11.00;1.00
3876;DHT22;1953;51.222;6.624;2023-04-24T04:41:00;11.00;1.00
3876;DHT22;1953;51.222;6.624;2023-04-24T04:45:43;10.90;1.00
3876;DHT22;1953;51.222;6.624;2023-04-24T04:50:27;10.80;1.00
3876;DHT22;1953;51.222;6.624;2023-04-24T04:55:10;10.70;1.00
3876;DHT22;1953;51.222;6.624;2023-04-24T04:59:54;10.60;1.00
3876;DHT22;1953;51.222;6.624;2023-04-24T05:04:37;10.50;1.00
3876;DHT22;1953;51.222;6.624;2023-04-24T05:09:20;10.50;1.00
3876;DHT22;1953;51.222;6.624;2023-04-24T05:14:03;10.60;1.00
3876;DHT22;1953;51.222;6.624;2023-04-24T05:18:45;10.50;1.00
3876;DHT22;1953;51.222;6.624;2023-04-24T05:23:28;10.40;1.00
3876;DHT22;1953;51.222;6.624;2023-04-24T05:28:12;10.30;1.00
3876;DHT22;1953;51.222;6.624;2023-04-24T05:32:54;10.30;1.00
3876;DHT22;1953;51.222;6.624;2023-04-24T05:37:37;10.30;1.00
3876;DHT22;1953;51.222;6.624;2023-04-24T05:42:20;10.30;1.00
3876;DHT22;1953;51.222;6.624;2023-04-24T05:47:04;10.40;1.00
3876;DHT22;1953;51.222;6.624;2023-04-24T05:51:47;10.30;1.00
3876;DHT22;1953;51.222;6.624;2023-04-24T05:56:29;10.30;1.00
3876;DHT22;1953;51.222;6.624;2023-04-24T06:01:12;10.30;1.00
3876;DHT22;1953;51.222;6.624;2023-04-24T06:05:56;10.40;1.00
3876;DHT22;1953;51.222;6.624;2023-04-24T06:10:39;10.40;1.00
3876;DHT22;1953;51.222;6.624;2023-04-24T06:15:21;10.30;1.00
3876;DHT22;1953;51.222;6.624;2023-04-24T06:20:05;10.40;1.00
3876;DHT22;1953;51.222;6.624;2023-04-24T06:24:50;10.30;1.00
3876;DHT22;1953;51.222;6.624;2023-04-24T06:29:33;10.30;1.00
3876;DHT22;1953;51.222;6.624;2023-04-24T06:34:16;10.30;1.00
3876;DHT22;1953;51.222;6.624;2023-04-24T06:38:58;10.30;1.00
3876;DHT22;1953;51.222;6.624;2023-04-24T06:43:42;10.30;1.00
3876;DHT22;1953;51.222;6.624;2023-04-24T06:48:25;10.20;1.00
3876;DHT22;1953;51.222;6.624;2023-04-24T06:53:07;10.20;1.00
3876;DHT22;1953;51.222;6.624;2023-04-24T06:57:52;10.20;1.00
3876;DHT22;1953;51.222;6.624;2023-04-24T07:02:36;10.20;1.00
3876;DHT22;1953;51.222;6.624;2023-04-24T07:07:18;10.20;1.00
3876;DHT22;1953;51.222;6.624;2023-04-24T07:12:01;10.20;1.00
3876;DHT22;1953;51.222;6.624;2023-04-24T07:16:43;10.10;1.00
3876;DHT22;1953;51.222;6.624;2023-04-24T07:21:27;10.00;1.00
3876;DHT22;1953;51.222;6.624;2023-04-24T07:26:10;9.90;1.00
3876;DHT22;1953;51.222;6.624;2023-04-24T07:30:52;9.60;1.00
3876;DHT22;1953;51.222;6.624;2023-04-24T07:35:35;9.40;1.00
3876;DHT22;1953;51.222;6.624;2023-04-24T07:40:19;9.20;1.00
3876;DHT22;1953;51.222;6.624;2023-04-24T07:45:03;9.10;1.00
3876;DHT22;1953;51.222;6.624;2023-04-24T07:49:45;9.10;1.00
3876;DHT22;1953;51.222;6.624;2023-04-24T07:54:28;9.00;1.00
3876;DHT22;1953;51.222;6.624;2023-04-24T07:59:12;9.00;1.00
3876;DHT22;1953;51.222;6.624;2023-04-24T08:03:55;9.00;1.00
3876;DHT22;1953;51.222;6.624;2023-04-24T08:08:37;9.10;1.00
3876;DHT22;1953;51.222;6.624;2023-04-24T08:13:20;9.10;1.00
3876;DHT22;1953;51.222;6.624;2023-04-24T08:18:04;9.20;1.00
3876;DHT22;1953;51.222;6.624;2023-04-24T08:22:47;9.20;1.00
3876;DHT22;1953;51.222;6.624;2023-04-24T08:27:30;9.30;1.00
3876;DHT22;1953;51.222;6.624;2023-04-24T08:32:12;9.30;1.00
3876;DHT22;1953;51.222;6.624;2023-04-24T08:36:56;9.40;1.00
3876;DHT22;1953;51.222;6.624;2023-04-24T08:41:41;9.50;1.00
3876;DHT22;1953;51.222;6.624;2023-04-24T08:46:24;9.50;1.00
3876;DHT22;1953;51.222;6.624;2023-04-24T08:51:08;9.50;1.00
3876;DHT22;1953;51.222;6.624;2023-04-24T08:55:54;9.50;1.00
3876;DHT22;1953;51.222;6.624;2023-04-24T09:00:39;9.50;1.00
3876;DHT22;1953;51.222;6.624;2023-04-24T09:05:25;9.60;1.00
3876;DHT22;1953;51.222;6.624;2023-04-24T09:10:09;9.60;1.00
3876;DHT22;1953;51.222;6.624;2023-04-24T09:14:54;9.60;1.00
3876;DHT22;1953;51.222;6.624;2023-04-24T09:19:37;9.70;1.00
3876;DHT22;1953;51.222;6.624;2023-04-24T09:24:21;9.60;1.00
3876;DHT22;1953;51.222;6.624;2023-04-24T09:29:04;9.60;1.00
3876;DHT22;1953;51.222;6.624;2023-04-24T09:33:55;9.50;1.00
3876;DHT22;1953;51.222;6.624;2023-04-24T09:38:38;9.60;1.00
3876;DHT22;1953;51.222;6.624;2023-04-24T09:43:21;9.80;1.00
3876;DHT22;1953;51.222;6.624;2023-04-24T09:48:04;9.90;1.00
3876;DHT22;1953;51.222;6.624;2023-04-24T09:52:57;9.80;1.00
3876;DHT22;1953;51.222;6.624;2023-04-24T09:57:47;9.90;1.00
3876;DHT22;1953;51.222;6.624;2023-04-24T10:02:32;10.00;1.00
3876;DHT22;1953;51.222;6.624;2023-04-24T10:07:15;10.10;1.00
3876;DHT22;1953;51.222;6.624;2023-04-24T10:11:59;10.20;1.00
3876;DHT22;1953;51.222;6.624;2023-04-24T10:16:44;10.30;1.00
3876;DHT22;1953;51.222;6.624;2023-04-24T10:21:28;10.50;1.00
3876;DHT22;1953;51.222;6.624;2023-04-24T10:26:12;10.70;1.00
3876;DHT22;1953;51.222;6.624;2023-04-24T10:31:00;10.50;1.00
3876;DHT22;1953;51.222;6.624;2023-04-24T10:35:46;10.50;1.00
3876;DHT22;1953;51.222;6.624;2023-04-24T10:40:32;10.50;1.00
3876;DHT22;1953;51.222;6.624;2023-04-24T10:45:19;10.50;1.00
3876;DHT22;1953;51.222;6.624;2023-04-24T10:50:08;10.80;1.00
3876;DHT22;1953;51.222;6.624;2023-04-24T10:54:51;10.90;1.00
3876;DHT22;1953;51.222;6.624;2023-04-24T10:59:35;11.10;1.00
3876;DHT22;1953;51.222;6.624;2023-04-24T11:04:29;11.20;1.00
3876;DHT22;1953;51.222;6.624;2023-04-24T11:09:15;11.00;1.00
3876;DHT22;1953;51.222;6.624;2023-04-24T11:14:04;11.00;1.00
3876;DHT22;1953;51.222;6.624;2023-04-24T11:18:51;11.00;1.00
3876;DHT22;1953;51.222;6.624;2023-04-24T11:23:36;11.10;1.00
3876;DHT22;1953;51.222;6.624;2023-04-24T11:28:24;11.30;1.00
3876;DHT22;1953;51.222;6.624;2023-04-24T11:33:07;11.70;1.00
3876;DHT22;1953;51.222;6.624;2023-04-24T11:37:50;12.10;1.00
3876;DHT22;1953;51.222;6.624;2023-04-24T11:42:36;12.00;1.00
3876;DHT22;1953;51.222;6.624;2023-04-24T11:47:28;11.80;1.00
3876;DHT22;1953;51.222;6.624;2023-04-24T11:52:11;11.60;1.00
3876;DHT22;1953;51.222;6.624;2023-04-24T11:56:57;11.60;1.00
3876;DHT22;1953;51.222;6.624;2023-04-24T12:01:43;11.80;1.00
3876;DHT22;1953;51.222;6.624;2023-04-24T12:06:28;12.00;1.00
3876;DHT22;1953;51.222;6.624;2023-04-24T12:12:07;12.30;1.00
3876;DHT22;1953;51.222;6.624;2023-04-24T12:16:50;12.40;1.00
3876;DHT22;1953;51.222;6.624;2023-04-24T12:21:32;12.70;1.00
3876;DHT22;1953;51.222;6.624;2023-04-24T12:26:18;13.00;1.00
3876;DHT22;1953;51.222;6.624;2023-04-24T12:31:02;13.20;1.00
3876;DHT22;1953;51.222;6.624;2023-04-24T12:35:45;13.20;1.00
3876;DHT22;1953;51.222;6.624;2023-04-24T12:40:28;13.10;1.00
3876;DHT22;1953;51.222;6.624;2023-04-24T12:45:13;13.20;1.00
3876;DHT22;1953;51.222;6.624;2023-04-24T12:49:57;13.00;1.00
3876;DHT22;1953;51.222;6.624;2023-04-24T12:54:40;12.80;1.00
3876;DHT22;1953;51.222;6.624;2023-04-24T12:59:22;12.90;1.00
3876;DHT22;1953;51.222;6.624;2023-04-24T13:04:05;12.80;1.00
3876;DHT22;1953;51.222;6.624;2023-04-24T13:08:49;13.00;1.00
3876;DHT22;1953;51.222;6.624;2023-04-24T13:13:32;13.20;1.00
3876;DHT22;1953;51.222;6.624;2023-04-24T13:18:15;13.30;1.00
3876;DHT22;1953;51.222;6.624;2023-04-24T13:22:57;13.30;1.00
3876;DHT22;1953;51.222;6.624;2023-04-24T13:27:41;14.10;1.00
3876;DHT22;1953;51.222;6.624;2023-04-24T13:32:24;14.80;1.00
3876;DHT22;1953;51.222;6.624;2023-04-24T13:37:06;14.40;1.00
3876;DHT22;1953;51.222;6.624;2023-04-24T13:41:49;14.00;1.00
3876;DHT22;1953;51.222;6.624;2023-04-24T13:46:33;13.70;1.00
3876;DHT22;1953;51.222;6.624;2023-04-24T13:51:15;13.30;1.00
3876;DHT22;1953;51.222;6.624;2023-04-24T13:55:58;13.00;1.00
3876;DHT22;1953;51.222;6.624;2023-04-24T14:00:40;13.00;1.00
3876;DHT22;1953;51.222;6.624;2023-04-24T14:05:24;13.00;1.00
3876;DHT22;1953;51.222;6.624;2023-04-24T14:10:08;12.90;1.00
3876;DHT22;1953;51.222;6.624;2023-04-24T14:14:50;12.90;1.00
3876;DHT22;1953;51.222;6.624;2023-04-24T14:19:33;13.00;1.00
3876;DHT22;1953;51.222;6.624;2023-04-24T14:24:17;13.40;1.00
3876;DHT22;1953;51.222;6.624;2023-04-24T14:28:59;13.40;1.00
3876;DHT22;1953;51.222;6.624;2023-04-24T14:33:42;13.20;1.00
3876;DHT22;1953;51.222;6.624;2023-04-24T14:38:24;13.30;1.00
3876;DHT22;1953;51.222;6.624;2023-04-24T14:43:09;13.50;1.00
3876;DHT22;1953;51.222;6.624;2023-04-24T14:47:51;13.50;1.00
3876;DHT22;1953;51.222;6.624;2023-04-24T14:52:34;13.50;1.00
3876;DHT22;1953;51.222;6.624;2023-04-24T14:57:17;13.40;1.00
3876;DHT22;1953;51.222;6.624;2023-04-24T15:02:01;13.50;1.00
3876;DHT22;1953;51.222;6.624;2023-04-24T15:06:43;13.90;1.00
3876;DHT22;1953;51.222;6.624;2023-04-24T15:11:26;14.60;1.00
3876;DHT22;1953;51.222;6.624;2023-04-24T15:16:09;15.60;1.00
3876;DHT22;1953;51.222;6.624;2023-04-24T15:20:53;15.40;1.00
3876;DHT22;1953;51.222;6.624;2023-04-24T15:25:36;15.50;1.00
3876;DHT22;1953;51.222;6.624;2023-04-24T15:30:19;16.00;1.00
3876;DHT22;1953;51.222;6.624;2023-04-24T15:35:01;16.50;1.00
3876;DHT22;1953;51.222;6.624;2023-04-24T15:39:46;16.90;1.00
3876;DHT22;1953;51.222;6.624;2023-04-24T15:44:28;17.50;1.00
3876;DHT22;1953;51.222;6.624;2023-04-24T15:49:11;17.50;1.00
3876;DHT22;1953;51.222;6.624;2023-04-24T15:53:53;17.40;1.00
3876;DHT22;1953;51.222;6.624;2023-04-24T15:58:37;17.40;1.00
3876;DHT22;1953;51.222;6.624;2023-04-24T16:03:20;17.40;1.00
3876;DHT22;1953;51.222;6.624;2023-04-24T16:08:02;17.10;1.00
3876;DHT22;1953;51.222;6.624;2023-04-24T16:12:45;16.30;1.00
3876;DHT22;1953;51.222;6.624;2023-04-24T16:17:29;16.60;1.00
3876;DHT22;1953;51.222;6.624;2023-04-24T16:22:11;17.10;1.00
3876;DHT22;1953;51.222;6.624;2023-04-24T16:26:54;16.60;1.00
3876;DHT22;1953;51.222;6.624;2023-04-24T16:31:37;16.60;1.00
3876;DHT22;1953;51.222;6.624;2023-04-24T16:36:21;16.70;1.00
3876;DHT22;1953;51.222;6.624;2023-04-24T16:41:04;17.00;1.00
3876;DHT22;1953;51.222;6.624;2023-04-24T16:45:47;16.50;1.00
3876;DHT22;1953;51.222;6.624;2023-04-24T16:50:30;16.10;1.00
3876;DHT22;1953;51.222;6.624;2023-04-24T16:55:14;16.00;1.00
3876;DHT22;1953;51.222;6.624;2023-04-24T16:59:57;15.80;1.00
3876;DHT22;1953;51.222;6.624;2023-04-24T17:04:39;15.90;1.00
3876;DHT22;1953;51.222;6.624;2023-04-24T17:09:22;15.90;1.00
3876;DHT22;1953;51.222;6.624;2023-04-24T17:14:06;15.60;1.00
3876;DHT22;1953;51.222;6.624;2023-04-24T17:18:49;15.90;1.00
3876;DHT22;1953;51.222;6.624;2023-04-24T17:23:31;15.60;1.00
3876;DHT22;1953;51.222;6.624;2023-04-24T17:28:22;15.40;1.00
3876;DHT22;1953;51.222;6.624;2023-04-24T17:33:07;15.40;1.00
3876;DHT22;1953;51.222;6.624;2023-04-24T17:37:50;15.10;1.00
3876;DHT22;1953;51.222;6.624;2023-04-24T17:42:33;14.70;1.00
3876;DHT22;1953;51.222;6.624;2023-04-24T17:47:16;14.40;1.00
3876;DHT22;1953;51.222;6.624;2023-04-24T17:52:01;14.20;1.00
3876;DHT22;1953;51.222;6.624;2023-04-24T17:56:44;13.90;1.00
3876;DHT22;1953;51.222;6.624;2023-04-24T18:01:27;13.70;1.00
3876;DHT22;1953;51.222;6.624;2023-04-24T18:06:09;13.50;1.00
3876;DHT22;1953;51.222;6.624;2023-04-24T18:10:53;13.30;1.00
3876;DHT22;1953;51.222;6.624;2023-04-24T18:15:36;13.10;1.00
3876;DHT22;1953;51.222;6.624;2023-04-24T18:20:22;13.00;1.00
3876;DHT22;1953;51.222;6.624;2023-04-24T18:25:05;13.00;1.00
3876;DHT22;1953;51.222;6.624;2023-04-24T18:29:50;12.90;1.00
3876;DHT22;1953;51.222;6.624;2023-04-24T18:34:32;12.70;1.00
3876;DHT22;1953;51.222;6.624;2023-04-24T18:39:15;12.60;1.00
3876;DHT22;1953;51.222;6.624;2023-04-24T18:43:57;12.50;1.00
3876;DHT22;1953;51.222;6.624;2023-04-24T18:48:41;12.40;1.00
3876;DHT22;1953;51.222;6.624;2023-04-24T18:53:24;12.40;1.00
3876;DHT22;1953;51.222;6.624;2023-04-24T18:58:07;12.50;1.00
3876;DHT22;1953;51.222;6.624;2023-04-24T19:02:49;12.50;1.00
3876;DHT22;1953;51.222;6.624;2023-04-24T19:07:33;12.40;1.00
3876;DHT22;1953;51.222;6.624;2023-04-24T19:12:16;12.20;1.00
3876;DHT22;1953;51.222;6.624;2023-04-24T19:16:59;12.10;1.00
3876;DHT22;1953;51.222;6.624;2023-04-24T19:21:41;12.10;1.00
3876;DHT22;1953;51.222;6.624;2023-04-24T19:26:25;11.90;1.00
3876;DHT22;1953;51.222;6.624;2023-04-24T19:31:08;11.90;1.00
3876;DHT22;1953;51.222;6.624;2023-04-24T19:35:51;11.90;1.00
3876;DHT22;1953;51.222;6.624;2023-04-24T19:40:33;11.80;1.00
3876;DHT22;1953;51.222;6.624;2023-04-24T19:45:17;11.80;1.00
3876;DHT22;1953;51.222;6.624;2023-04-24T19:50:00;11.70;1.00
3876;DHT22;1953;51.222;6.624;2023-04-24T19:54:42;11.70;1.00
3876;DHT22;1953;51.222;6.624;2023-04-24T19:59:24;11.70;1.00
3876;DHT22;1953;51.222;6.624;2023-04-24T20:04:08;11.50;1.00
3876;DHT22;1953;51.222;6.624;2023-04-24T20:08:51;11.30;1.00
3876;DHT22;1953;51.222;6.624;2023-04-24T20:13:34;11.20;1.00
3876;DHT22;1953;51.222;6.624;2023-04-24T20:18:16;10.90;1.00
3876;DHT22;1953;51.222;6.624;2023-04-24T20:23:00;10.80;1.00
3876;DHT22;1953;51.222;6.624;2023-04-24T20:27:43;10.70;1.00
3876;DHT22;1953;51.222;6.624;2023-04-24T20:32:25;10.70;1.00
3876;DHT22;1953;51.222;6.624;2023-04-24T20:37:08;10.60;1.00
3876;DHT22;1953;51.222;6.624;2023-04-24T20:41:51;10.50;1.00
3876;DHT22;1953;51.222;6.624;2023-04-24T20:46:34;10.40;1.00
3876;DHT22;1953;51.222;6.624;2023-04-24T20:51:17;10.30;1.00
3876;DHT22;1953;51.222;6.624;2023-04-24T20:55:59;10.10;1.00
3876;DHT22;1953;51.222;6.624;2023-04-24T21:00:44;10.00;1.00
3876;DHT22;1953;51.222;6.624;2023-04-24T21:05:26;9.90;1.00
3876;DHT22;1953;51.222;6.624;2023-04-24T21:10:09;9.80;1.00
3876;DHT22;1953;51.222;6.624;2023-04-24T21:14:53;9.70;1.00
3876;DHT22;1953;51.222;6.624;2023-04-24T21:19:37;9.60;1.00
3876;DHT22;1953;51.222;6.624;2023-04-24T21:24:19;9.60;1.00
3876;DHT22;1953;51.222;6.624;2023-04-24T21:29:02;9.50;1.00
3876;DHT22;1953;51.222;6.624;2023-04-24T21:33:45;9.40;1.00
3876;DHT22;1953;51.222;6.624;2023-04-24T21:38:29;9.30;1.00
3876;DHT22;1953;51.222;6.624;2023-04-24T21:43:11;9.30;1.00
3876;DHT22;1953;51.222;6.624;2023-04-24T21:47:54;9.20;1.00
3876;DHT22;1953;51.222;6.624;2023-04-24T21:52:37;9.20;1.00
3876;DHT22;1953;51.222;6.624;2023-04-24T21:57:20;9.10;1.00
3876;DHT22;1953;51.222;6.624;2023-04-24T22:02:03;9.10;1.00
3876;DHT22;1953;51.222;6.624;2023-04-24T22:06:46;9.00;1.00
3876;DHT22;1953;51.222;6.624;2023-04-24T22:11:28;8.90;1.00
3876;DHT22;1953;51.222;6.624;2023-04-24T22:16:12;8.90;1.00
3876;DHT22;1953;51.222;6.624;2023-04-24T22:20:55;8.80;1.00
3876;DHT22;1953;51.222;6.624;2023-04-24T22:25:38;8.80;1.00
3876;DHT22;1953;51.222;6.624;2023-04-24T22:30:21;8.80;1.00
3876;DHT22;1953;51.222;6.624;2023-04-24T22:35:05;8.70;1.00
3876;DHT22;1953;51.222;6.624;2023-04-24T22:39:48;8.70;1.00
3876;DHT22;1953;51.222;6.624;2023-04-24T22:44:30;8.70;1.00
3876;DHT22;1953;51.222;6.624;2023-04-24T22:49:13;8.70;1.00
3876;DHT22;1953;51.222;6.624;2023-04-24T22:53:57;8.70;1.00
3876;DHT22;1953;51.222;6.624;2023-04-24T22:58:39;8.70;1.00
3876;DHT22;1953;51.222;6.624;2023-04-24T23:03:22;8.60;1.00
3876;DHT22;1953;51.222;6.624;2023-04-24T23:08:05;8.60;1.00
3876;DHT22;1953;51.222;6.624;2023-04-24T23:12:49;8.50;1.00
3876;DHT22;1953;51.222;6.624;2023-04-24T23:17:31;8.50;1.00
3876;DHT22;1953;51.222;6.624;2023-04-24T23:22:13;8.50;1.00
3876;DHT22;1953;51.222;6.624;2023-04-24T23:26:56;8.50;1.00
3876;DHT22;1953;51.222;6.624;2023-04-24T23:31:40;8.40;1.00
3876;DHT22;1953;51.222;6.624;2023-04-24T23:36:22;8.30;1.00
3876;DHT22;1953;51.222;6.624;2023-04-24T23:41:04;8.30;1.00
3876;DHT22;1953;51.222;6.624;2023-04-24T23:45:47;8.40;1.00
3876;DHT22;1953;51.222;6.624;2023-04-24T23:50:31;8.60;1.00
3876;DHT22;1953;51.222;6.624;2023-04-24T23:55:13;8.30;1.00
3876;DHT22;1953;51.222;6.624;2023-04-24T23:59:56;8.30;1.00
